sensor_id;sensor_type;location;lat;lon;timestamp;P1;durP1;ratioP1;P2;durP2;ratioP2
53313;SDS011;39202;51.468;7.146;2022-08-27T00:03:11;0.77;;;0.77;;
53313;SDS011;39202;51.468;7.146;2022-08-27T00:08:14;0.70;;;0.70;;
53313;SDS011;39202;51.468;7.146;2022-08-27T00:13:17;0.70;;;0.70;;
53313;SDS011;39202;51.468;7.146;2022-08-27T00:18:18;0.60;;;0.60;;
53313;SDS011;39202;51.468;7.146;2022-08-27T00:23:20;0.75;;;0.75;;
53313;SDS011;39202;51.468;7.146;2022-08-27T00:28:23;0.60;;;0.60;;
53313;SDS011;39202;51.468;7.146;2022-08-27T00:33:25;0.70;;;0.70;;
53313;SDS011;39202;51.468;7.146;2022-08-27T00:38:28;0.73;;;0.73;;
53313;SDS011;39202;51.468;7.146;2022-08-27T00:43:42;0.70;;;0.70;;
53313;SDS011;39202;51.468;7.146;2022-08-27T00:48:47;0.60;;;0.60;;
53313;SDS011;39202;51.468;7.146;2022-08-27T00:53:51;0.70;;;0.70;;
53313;SDS011;39202;51.468;7.146;2022-08-27T00:58:56;0.70;;;0.70;;
53313;SDS011;39202;51.468;7.146;2022-08-27T01:03:58;0.68;;;0.68;;
53313;SDS011;39202;51.468;7.146;2022-08-27T01:09:04;0.60;;;0.60;;
53313;SDS011;39202;51.468;7.146;2022-08-27T01:14:14;0.60;;;0.60;;
53313;SDS011;39202;51.468;7.146;2022-08-27T01:24:39;0.60;;;0.60;;
53313;SDS011;39202;51.468;7.146;2022-08-27T01:29:42;0.70;;;0.70;;
53313;SDS011;39202;51.468;7.146;2022-08-27T01:34:46;0.68;;;0.68;;
53313;SDS011;39202;51.468;7.146;2022-08-27T01:39:49;0.75;;;0.75;;
53313;SDS011;39202;51.468;7.146;2022-08-27T01:44:52;0.70;;;0.70;;
53313;SDS011;39202;51.468;7.146;2022-08-27T01:49:55;0.63;;;0.63;;
53313;SDS011;39202;51.468;7.146;2022-08-27T01:55:00;0.70;;;0.70;;
53313;SDS011;39202;51.468;7.146;2022-08-27T02:00:03;0.70;;;0.70;;
53313;SDS011;39202;51.468;7.146;2022-08-27T02:05:06;0.70;;;0.70;;
53313;SDS011;39202;51.468;7.146;2022-08-27T02:10:11;0.68;;;0.68;;
53313;SDS011;39202;51.468;7.146;2022-08-27T02:15:16;0.63;;;0.63;;
53313;SDS011;39202;51.468;7.146;2022-08-27T02:20:18;0.70;;;0.70;;
53313;SDS011;39202;51.468;7.146;2022-08-27T02:25:22;0.70;;;0.70;;
53313;SDS011;39202;51.468;7.146;2022-08-27T02:30:24;0.70;;;0.70;;
53313;SDS011;39202;51.468;7.146;2022-08-27T02:35:28;0.60;;;0.60;;
53313;SDS011;39202;51.468;7.146;2022-08-27T02:40:34;0.70;;;0.70;;
53313;SDS011;39202;51.468;7.146;2022-08-27T02:45:36;0.70;;;0.70;;
53313;SDS011;39202;51.468;7.146;2022-08-27T02:50:37;0.52;;;0.52;;
53313;SDS011;39202;51.468;7.146;2022-08-27T02:55:41;0.70;;;0.70;;
53313;SDS011;39202;51.468;7.146;2022-08-27T03:00:42;0.63;;;0.63;;
53313;SDS011;39202;51.468;7.146;2022-08-27T03:05:45;0.70;;;0.70;;
53313;SDS011;39202;51.468;7.146;2022-08-27T03:10:48;0.63;;;0.63;;
53313;SDS011;39202;51.468;7.146;2022-08-27T03:15:50;0.73;;;0.73;;
53313;SDS011;39202;51.468;7.146;2022-08-27T03:20:53;0.70;;;0.70;;
53313;SDS011;39202;51.468;7.146;2022-08-27T03:25:57;0.60;;;0.60;;
53313;SDS011;39202;51.468;7.146;2022-08-27T03:31:02;0.60;;;0.60;;
53313;SDS011;39202;51.468;7.146;2022-08-27T03:36:06;0.70;;;0.70;;
53313;SDS011;39202;51.468;7.146;2022-08-27T03:41:09;0.65;;;0.65;;
53313;SDS011;39202;51.468;7.146;2022-08-27T03:46:12;0.60;;;0.60;;
53313;SDS011;39202;51.468;7.146;2022-08-27T03:51:14;0.80;;;0.80;;
53313;SDS011;39202;51.468;7.146;2022-08-27T03:56:17;0.80;;;0.80;;
53313;SDS011;39202;51.468;7.146;2022-08-27T04:01:19;0.60;;;0.60;;
53313;SDS011;39202;51.468;7.146;2022-08-27T04:06:21;0.77;;;0.77;;
53313;SDS011;39202;51.468;7.146;2022-08-27T04:11:24;0.68;;;0.68;;
53313;SDS011;39202;51.468;7.146;2022-08-27T04:16:26;0.70;;;0.70;;
53313;SDS011;39202;51.468;7.146;2022-08-27T04:21:28;0.70;;;0.70;;
53313;SDS011;39202;51.468;7.146;2022-08-27T04:26:33;0.60;;;0.60;;
53313;SDS011;39202;51.468;7.146;2022-08-27T04:31:35;0.70;;;0.70;;
53313;SDS011;39202;51.468;7.146;2022-08-27T04:36:36;0.60;;;0.60;;
53313;SDS011;39202;51.468;7.146;2022-08-27T04:41:39;0.60;;;0.60;;
53313;SDS011;39202;51.468;7.146;2022-08-27T04:46:41;0.63;;;0.63;;
53313;SDS011;39202;51.468;7.146;2022-08-27T04:51:43;0.80;;;0.80;;
53313;SDS011;39202;51.468;7.146;2022-08-27T04:56:46;0.68;;;0.68;;
53313;SDS011;39202;51.468;7.146;2022-08-27T05:01:48;0.70;;;0.70;;
53313;SDS011;39202;51.468;7.146;2022-08-27T05:06:50;0.70;;;0.70;;
53313;SDS011;39202;51.468;7.146;2022-08-27T05:11:53;0.77;;;0.77;;
53313;SDS011;39202;51.468;7.146;2022-08-27T05:16:56;0.80;;;0.80;;
53313;SDS011;39202;51.468;7.146;2022-08-27T05:21:58;0.57;;;0.57;;
53313;SDS011;39202;51.468;7.146;2022-08-27T05:27:01;0.60;;;0.60;;
53313;SDS011;39202;51.468;7.146;2022-08-27T05:32:03;0.68;;;0.68;;
53313;SDS011;39202;51.468;7.146;2022-08-27T05:37:05;0.70;;;0.70;;
53313;SDS011;39202;51.468;7.146;2022-08-27T05:42:08;0.63;;;0.63;;
53313;SDS011;39202;51.468;7.146;2022-08-27T05:47:09;0.75;;;0.75;;
53313;SDS011;39202;51.468;7.146;2022-08-27T05:52:11;0.60;;;0.60;;
53313;SDS011;39202;51.468;7.146;2022-08-27T05:57:14;0.60;;;0.60;;
53313;SDS011;39202;51.468;7.146;2022-08-27T06:02:16;0.60;;;0.60;;
53313;SDS011;39202;51.468;7.146;2022-08-27T06:07:19;0.60;;;0.60;;
53313;SDS011;39202;51.468;7.146;2022-08-27T06:12:22;0.60;;;0.60;;
53313;SDS011;39202;51.468;7.146;2022-08-27T06:17:24;0.68;;;0.68;;
53313;SDS011;39202;51.468;7.146;2022-08-27T06:22:26;0.65;;;0.60;;
53313;SDS011;39202;51.468;7.146;2022-08-27T06:27:29;0.65;;;0.65;;
53313;SDS011;39202;51.468;7.146;2022-08-27T06:32:31;0.70;;;0.70;;
53313;SDS011;39202;51.468;7.146;2022-08-27T06:37:32;0.60;;;0.60;;
53313;SDS011;39202;51.468;7.146;2022-08-27T06:42:36;0.60;;;0.60;;
53313;SDS011;39202;51.468;7.146;2022-08-27T06:47:38;0.60;;;0.60;;
53313;SDS011;39202;51.468;7.146;2022-08-27T06:52:40;0.70;;;0.70;;
53313;SDS011;39202;51.468;7.146;2022-08-27T06:57:43;0.80;;;0.80;;
53313;SDS011;39202;51.468;7.146;2022-08-27T07:02:45;0.60;;;0.60;;
53313;SDS011;39202;51.468;7.146;2022-08-27T07:07:46;0.73;;;0.73;;
53313;SDS011;39202;51.468;7.146;2022-08-27T07:12:49;1.23;;;0.80;;
53313;SDS011;39202;51.468;7.146;2022-08-27T07:17:51;0.80;;;0.80;;
53313;SDS011;39202;51.468;7.146;2022-08-27T07:22:53;0.80;;;0.80;;
53313;SDS011;39202;51.468;7.146;2022-08-27T07:27:59;0.90;;;0.90;;
53313;SDS011;39202;51.468;7.146;2022-08-27T07:33:00;0.90;;;0.90;;
53313;SDS011;39202;51.468;7.146;2022-08-27T07:38:02;1.50;;;1.15;;
53313;SDS011;39202;51.468;7.146;2022-08-27T07:43:05;1.55;;;0.90;;
53313;SDS011;39202;51.468;7.146;2022-08-27T07:48:25;1.90;;;1.20;;
53313;SDS011;39202;51.468;7.146;2022-08-27T07:53:28;1.15;;;1.02;;
53313;SDS011;39202;51.468;7.146;2022-08-27T07:58:31;1.40;;;1.20;;
53313;SDS011;39202;51.468;7.146;2022-08-27T08:03:33;1.45;;;1.30;;
53313;SDS011;39202;51.468;7.146;2022-08-27T08:08:35;1.35;;;1.08;;
53313;SDS011;39202;51.468;7.146;2022-08-27T08:13:40;1.00;;;1.00;;
53313;SDS011;39202;51.468;7.146;2022-08-27T08:18:42;1.27;;;1.10;;
53313;SDS011;39202;51.468;7.146;2022-08-27T08:23:44;1.40;;;1.15;;
53313;SDS011;39202;51.468;7.146;2022-08-27T08:28:49;1.67;;;1.05;;
53313;SDS011;39202;51.468;7.146;2022-08-27T08:33:51;1.15;;;1.00;;
53313;SDS011;39202;51.468;7.146;2022-08-27T08:38:53;1.40;;;1.17;;
53313;SDS011;39202;51.468;7.146;2022-08-27T08:43:56;1.23;;;1.13;;
53313;SDS011;39202;51.468;7.146;2022-08-27T08:49:01;1.40;;;1.30;;
53313;SDS011;39202;51.468;7.146;2022-08-27T08:54:15;1.25;;;0.90;;
53313;SDS011;39202;51.468;7.146;2022-08-27T08:59:22;1.10;;;1.00;;
53313;SDS011;39202;51.468;7.146;2022-08-27T09:04:29;1.30;;;1.20;;
53313;SDS011;39202;51.468;7.146;2022-08-27T09:09:34;1.00;;;1.00;;
53313;SDS011;39202;51.468;7.146;2022-08-27T09:14:46;0.95;;;0.90;;
53313;SDS011;39202;51.468;7.146;2022-08-27T09:19:52;0.75;;;0.75;;
53313;SDS011;39202;51.468;7.146;2022-08-27T09:24:56;1.33;;;1.05;;
53313;SDS011;39202;51.468;7.146;2022-08-27T09:30:08;0.93;;;0.93;;
53313;SDS011;39202;51.468;7.146;2022-08-27T09:35:12;1.02;;;0.98;;
53313;SDS011;39202;51.468;7.146;2022-08-27T09:40:16;0.80;;;0.80;;
53313;SDS011;39202;51.468;7.146;2022-08-27T09:45:25;1.17;;;1.08;;
53313;SDS011;39202;51.468;7.146;2022-08-27T09:50:29;0.90;;;0.90;;
53313;SDS011;39202;51.468;7.146;2022-08-27T09:55:37;2.72;;;1.10;;
53313;SDS011;39202;51.468;7.146;2022-08-27T10:00:58;1.55;;;0.95;;
53313;SDS011;39202;51.468;7.146;2022-08-27T10:06:02;0.80;;;0.80;;
53313;SDS011;39202;51.468;7.146;2022-08-27T10:11:06;2.00;;;1.15;;
53313;SDS011;39202;51.468;7.146;2022-08-27T10:21:48;1.90;;;1.00;;
53313;SDS011;39202;51.468;7.146;2022-08-27T10:27:00;1.45;;;0.90;;
53313;SDS011;39202;51.468;7.146;2022-08-27T10:32:12;1.45;;;1.10;;
53313;SDS011;39202;51.468;7.146;2022-08-27T10:37:31;1.73;;;0.90;;
53313;SDS011;39202;51.468;7.146;2022-08-27T10:42:44;2.58;;;0.90;;
53313;SDS011;39202;51.468;7.146;2022-08-27T10:47:55;0.82;;;0.82;;
53313;SDS011;39202;51.468;7.146;2022-08-27T10:53:06;1.38;;;1.10;;
53313;SDS011;39202;51.468;7.146;2022-08-27T10:58:15;1.33;;;1.20;;
53313;SDS011;39202;51.468;7.146;2022-08-27T11:03:28;0.90;;;0.90;;
53313;SDS011;39202;51.468;7.146;2022-08-27T11:08:47;0.82;;;0.82;;
53313;SDS011;39202;51.468;7.146;2022-08-27T11:13:54;2.15;;;1.10;;
53313;SDS011;39202;51.468;7.146;2022-08-27T11:19:07;0.95;;;0.90;;
53313;SDS011;39202;51.468;7.146;2022-08-27T11:24:21;0.90;;;0.90;;
53313;SDS011;39202;51.468;7.146;2022-08-27T11:29:29;1.00;;;1.00;;
53313;SDS011;39202;51.468;7.146;2022-08-27T11:34:39;2.00;;;0.90;;
53313;SDS011;39202;51.468;7.146;2022-08-27T11:39:50;1.75;;;0.90;;
53313;SDS011;39202;51.468;7.146;2022-08-27T11:45:05;0.85;;;0.85;;
53313;SDS011;39202;51.468;7.146;2022-08-27T11:50:15;1.05;;;1.02;;
53313;SDS011;39202;51.468;7.146;2022-08-27T11:55:22;1.00;;;0.98;;
53313;SDS011;39202;51.468;7.146;2022-08-27T12:00:28;1.17;;;1.05;;
53313;SDS011;39202;51.468;7.146;2022-08-27T12:05:36;1.25;;;1.15;;
53313;SDS011;39202;51.468;7.146;2022-08-27T12:10:45;1.33;;;1.20;;
53313;SDS011;39202;51.468;7.146;2022-08-27T12:15:56;2.33;;;0.90;;
53313;SDS011;39202;51.468;7.146;2022-08-27T12:21:05;1.60;;;0.95;;
53313;SDS011;39202;51.468;7.146;2022-08-27T12:26:27;1.67;;;1.02;;
53313;SDS011;39202;51.468;7.146;2022-08-27T12:31:31;1.00;;;1.00;;
53313;SDS011;39202;51.468;7.146;2022-08-27T12:36:37;1.17;;;1.00;;
53313;SDS011;39202;51.468;7.146;2022-08-27T12:41:39;0.95;;;0.95;;
53313;SDS011;39202;51.468;7.146;2022-08-27T12:46:46;1.00;;;0.95;;
53313;SDS011;39202;51.468;7.146;2022-08-27T12:51:51;1.00;;;0.90;;
53313;SDS011;39202;51.468;7.146;2022-08-27T12:56:56;1.23;;;1.13;;
53313;SDS011;39202;51.468;7.146;2022-08-27T13:02:06;1.02;;;0.90;;
53313;SDS011;39202;51.468;7.146;2022-08-27T13:07:27;1.45;;;0.90;;
53313;SDS011;39202;51.468;7.146;2022-08-27T13:12:30;1.00;;;1.00;;
53313;SDS011;39202;51.468;7.146;2022-08-27T13:17:34;1.00;;;0.90;;
53313;SDS011;39202;51.468;7.146;2022-08-27T13:22:40;1.10;;;0.90;;
53313;SDS011;39202;51.468;7.146;2022-08-27T13:27:49;1.10;;;1.00;;
53313;SDS011;39202;51.468;7.146;2022-08-27T13:32:53;1.27;;;0.93;;
53313;SDS011;39202;51.468;7.146;2022-08-27T13:37:57;1.35;;;1.00;;
53313;SDS011;39202;51.468;7.146;2022-08-27T13:43:01;1.10;;;0.90;;
53313;SDS011;39202;51.468;7.146;2022-08-27T13:48:06;0.88;;;0.80;;
53313;SDS011;39202;51.468;7.146;2022-08-27T13:53:11;0.80;;;0.80;;
53313;SDS011;39202;51.468;7.146;2022-08-27T13:58:38;0.82;;;0.73;;
53313;SDS011;39202;51.468;7.146;2022-08-27T14:03:45;1.35;;;0.90;;
53313;SDS011;39202;51.468;7.146;2022-08-27T14:08:49;0.80;;;0.80;;
53313;SDS011;39202;51.468;7.146;2022-08-27T14:13:52;1.58;;;0.90;;
53313;SDS011;39202;51.468;7.146;2022-08-27T14:19:01;0.90;;;0.90;;
53313;SDS011;39202;51.468;7.146;2022-08-27T14:24:06;0.93;;;0.93;;
53313;SDS011;39202;51.468;7.146;2022-08-27T14:29:08;1.08;;;0.80;;
53313;SDS011;39202;51.468;7.146;2022-08-27T14:34:10;3.10;;;1.70;;
53313;SDS011;39202;51.468;7.146;2022-08-27T14:39:13;6.50;;;2.53;;
53313;SDS011;39202;51.468;7.146;2022-08-27T14:44:15;8.20;;;3.20;;
53313;SDS011;39202;51.468;7.146;2022-08-27T14:49:18;13.85;;;4.20;;
53313;SDS011;39202;51.468;7.146;2022-08-27T14:54:34;15.00;;;4.88;;
53313;SDS011;39202;51.468;7.146;2022-08-27T14:59:37;15.57;;;5.65;;
53313;SDS011;39202;51.468;7.146;2022-08-27T15:04:39;15.20;;;5.53;;
53313;SDS011;39202;51.468;7.146;2022-08-27T15:09:42;15.15;;;5.60;;
53313;SDS011;39202;51.468;7.146;2022-08-27T15:14:44;15.68;;;6.03;;
53313;SDS011;39202;51.468;7.146;2022-08-27T15:19:46;15.43;;;5.90;;
53313;SDS011;39202;51.468;7.146;2022-08-27T15:24:51;15.45;;;6.30;;
53313;SDS011;39202;51.468;7.146;2022-08-27T15:29:55;14.98;;;5.60;;
53313;SDS011;39202;51.468;7.146;2022-08-27T15:35:00;15.10;;;6.28;;
53313;SDS011;39202;51.468;7.146;2022-08-27T15:40:09;14.40;;;6.28;;
53313;SDS011;39202;51.468;7.146;2022-08-27T15:45:13;16.52;;;6.47;;
53313;SDS011;39202;51.468;7.146;2022-08-27T15:50:15;15.70;;;6.22;;
53313;SDS011;39202;51.468;7.146;2022-08-27T15:55:20;13.20;;;5.65;;
53313;SDS011;39202;51.468;7.146;2022-08-27T16:00:24;13.75;;;6.55;;
53313;SDS011;39202;51.468;7.146;2022-08-27T16:05:26;12.82;;;6.72;;
53313;SDS011;39202;51.468;7.146;2022-08-27T16:10:33;13.20;;;6.53;;
53313;SDS011;39202;51.468;7.146;2022-08-27T16:15:35;12.65;;;6.20;;
53313;SDS011;39202;51.468;7.146;2022-08-27T16:20:39;15.40;;;6.65;;
53313;SDS011;39202;51.468;7.146;2022-08-27T16:25:42;14.68;;;6.10;;
53313;SDS011;39202;51.468;7.146;2022-08-27T16:30:44;11.85;;;5.70;;
53313;SDS011;39202;51.468;7.146;2022-08-27T16:35:47;11.75;;;5.95;;
53313;SDS011;39202;51.468;7.146;2022-08-27T16:40:50;14.10;;;6.05;;
53313;SDS011;39202;51.468;7.146;2022-08-27T16:45:54;12.25;;;5.30;;
53313;SDS011;39202;51.468;7.146;2022-08-27T16:50:58;12.13;;;5.78;;
53313;SDS011;39202;51.468;7.146;2022-08-27T16:56:02;11.68;;;5.72;;
53313;SDS011;39202;51.468;7.146;2022-08-27T17:01:04;11.30;;;6.00;;
53313;SDS011;39202;51.468;7.146;2022-08-27T17:06:08;10.15;;;5.00;;
53313;SDS011;39202;51.468;7.146;2022-08-27T17:11:13;11.93;;;5.43;;
53313;SDS011;39202;51.468;7.146;2022-08-27T17:16:17;10.25;;;5.53;;
53313;SDS011;39202;51.468;7.146;2022-08-27T17:21:20;10.38;;;5.05;;
53313;SDS011;39202;51.468;7.146;2022-08-27T17:26:24;10.07;;;5.40;;
53313;SDS011;39202;51.468;7.146;2022-08-27T17:31:27;8.57;;;4.68;;
53313;SDS011;39202;51.468;7.146;2022-08-27T17:36:31;8.52;;;4.25;;
53313;SDS011;39202;51.468;7.146;2022-08-27T17:41:36;10.68;;;5.10;;
53313;SDS011;39202;51.468;7.146;2022-08-27T17:46:39;8.98;;;4.38;;
53313;SDS011;39202;51.468;7.146;2022-08-27T17:51:41;8.10;;;4.53;;
53313;SDS011;39202;51.468;7.146;2022-08-27T17:56:44;9.20;;;4.45;;
53313;SDS011;39202;51.468;7.146;2022-08-27T18:01:46;10.40;;;5.03;;
53313;SDS011;39202;51.468;7.146;2022-08-27T18:06:48;7.47;;;4.38;;
53313;SDS011;39202;51.468;7.146;2022-08-27T18:11:51;8.45;;;4.25;;
53313;SDS011;39202;51.468;7.146;2022-08-27T18:16:53;7.35;;;3.78;;
53313;SDS011;39202;51.468;7.146;2022-08-27T18:21:55;5.60;;;3.75;;
53313;SDS011;39202;51.468;7.146;2022-08-27T18:26:58;7.80;;;4.13;;
53313;SDS011;39202;51.468;7.146;2022-08-27T18:32:00;7.03;;;4.40;;
53313;SDS011;39202;51.468;7.146;2022-08-27T18:37:03;7.68;;;4.22;;
53313;SDS011;39202;51.468;7.146;2022-08-27T18:42:08;8.30;;;3.75;;
53313;SDS011;39202;51.468;7.146;2022-08-27T18:47:10;7.00;;;4.10;;
53313;SDS011;39202;51.468;7.146;2022-08-27T18:52:12;5.15;;;3.25;;
53313;SDS011;39202;51.468;7.146;2022-08-27T18:57:15;4.82;;;3.45;;
53313;SDS011;39202;51.468;7.146;2022-08-27T19:02:17;5.53;;;3.42;;
53313;SDS011;39202;51.468;7.146;2022-08-27T19:07:20;5.05;;;3.63;;
53313;SDS011;39202;51.468;7.146;2022-08-27T19:12:23;5.60;;;3.20;;
53313;SDS011;39202;51.468;7.146;2022-08-27T19:17:26;5.03;;;3.08;;
53313;SDS011;39202;51.468;7.146;2022-08-27T19:22:30;4.38;;;3.15;;
53313;SDS011;39202;51.468;7.146;2022-08-27T19:27:34;4.53;;;3.22;;
53313;SDS011;39202;51.468;7.146;2022-08-27T19:32:36;4.47;;;3.25;;
53313;SDS011;39202;51.468;7.146;2022-08-27T19:37:38;4.53;;;3.10;;
53313;SDS011;39202;51.468;7.146;2022-08-27T19:42:45;4.28;;;2.70;;
53313;SDS011;39202;51.468;7.146;2022-08-27T19:47:46;5.65;;;3.22;;
53313;SDS011;39202;51.468;7.146;2022-08-27T19:52:48;3.30;;;2.55;;
53313;SDS011;39202;51.468;7.146;2022-08-27T19:57:52;4.53;;;2.95;;
53313;SDS011;39202;51.468;7.146;2022-08-27T20:02:54;4.07;;;2.78;;
53313;SDS011;39202;51.468;7.146;2022-08-27T20:07:56;2.88;;;2.58;;
53313;SDS011;39202;51.468;7.146;2022-08-27T20:12:59;3.17;;;2.40;;
53313;SDS011;39202;51.468;7.146;2022-08-27T20:18:01;4.32;;;2.40;;
53313;SDS011;39202;51.468;7.146;2022-08-27T20:23:04;3.08;;;2.30;;
53313;SDS011;39202;51.468;7.146;2022-08-27T20:28:07;3.22;;;2.60;;
53313;SDS011;39202;51.468;7.146;2022-08-27T20:33:09;3.15;;;2.53;;
53313;SDS011;39202;51.468;7.146;2022-08-27T20:38:10;3.70;;;3.00;;
53313;SDS011;39202;51.468;7.146;2022-08-27T20:43:13;3.83;;;2.70;;
53313;SDS011;39202;51.468;7.146;2022-08-27T20:48:15;4.80;;;2.70;;
53313;SDS011;39202;51.468;7.146;2022-08-27T20:53:17;2.83;;;2.42;;
53313;SDS011;39202;51.468;7.146;2022-08-27T20:58:20;2.58;;;2.38;;
53313;SDS011;39202;51.468;7.146;2022-08-27T21:03:40;2.20;;;1.95;;
53313;SDS011;39202;51.468;7.146;2022-08-27T21:08:41;2.58;;;2.15;;
53313;SDS011;39202;51.468;7.146;2022-08-27T21:13:44;2.67;;;2.05;;
53313;SDS011;39202;51.468;7.146;2022-08-27T21:18:46;2.60;;;2.22;;
53313;SDS011;39202;51.468;7.146;2022-08-27T21:23:48;2.80;;;2.00;;
53313;SDS011;39202;51.468;7.146;2022-08-27T21:28:51;2.90;;;2.08;;
53313;SDS011;39202;51.468;7.146;2022-08-27T21:33:52;2.05;;;1.85;;
53313;SDS011;39202;51.468;7.146;2022-08-27T21:38:54;2.72;;;2.10;;
53313;SDS011;39202;51.468;7.146;2022-08-27T21:43:57;2.42;;;1.90;;
53313;SDS011;39202;51.468;7.146;2022-08-27T21:48:59;2.42;;;2.00;;
53313;SDS011;39202;51.468;7.146;2022-08-27T21:54:01;1.88;;;1.73;;
53313;SDS011;39202;51.468;7.146;2022-08-27T21:59:04;1.70;;;1.60;;
53313;SDS011;39202;51.468;7.146;2022-08-27T22:04:06;1.77;;;1.67;;
53313;SDS011;39202;51.468;7.146;2022-08-27T22:09:08;2.25;;;1.90;;
53313;SDS011;39202;51.468;7.146;2022-08-27T22:14:11;2.92;;;2.03;;
53313;SDS011;39202;51.468;7.146;2022-08-27T22:19:13;2.28;;;1.70;;
53313;SDS011;39202;51.468;7.146;2022-08-27T22:24:15;1.60;;;1.50;;
53313;SDS011;39202;51.468;7.146;2022-08-27T22:29:18;1.70;;;1.60;;
53313;SDS011;39202;51.468;7.146;2022-08-27T22:34:20;1.90;;;1.67;;
53313;SDS011;39202;51.468;7.146;2022-08-27T22:39:21;1.85;;;1.75;;
53313;SDS011;39202;51.468;7.146;2022-08-27T22:44:24;2.75;;;1.75;;
53313;SDS011;39202;51.468;7.146;2022-08-27T22:49:28;1.83;;;1.60;;
53313;SDS011;39202;51.468;7.146;2022-08-27T22:54:30;1.77;;;1.63;;
53313;SDS011;39202;51.468;7.146;2022-08-27T22:59:32;1.50;;;1.40;;
53313;SDS011;39202;51.468;7.146;2022-08-27T23:04:34;1.45;;;1.35;;
53313;SDS011;39202;51.468;7.146;2022-08-27T23:09:37;1.52;;;1.42;;
53313;SDS011;39202;51.468;7.146;2022-08-27T23:14:40;2.35;;;1.52;;
53313;SDS011;39202;51.468;7.146;2022-08-27T23:19:42;2.03;;;1.50;;
53313;SDS011;39202;51.468;7.146;2022-08-27T23:24:44;1.48;;;1.38;;
53313;SDS011;39202;51.468;7.146;2022-08-27T23:30:06;1.40;;;1.25;;
53313;SDS011;39202;51.468;7.146;2022-08-27T23:35:08;1.38;;;1.27;;
53313;SDS011;39202;51.468;7.146;2022-08-27T23:40:11;1.42;;;1.33;;
53313;SDS011;39202;51.468;7.146;2022-08-27T23:45:15;1.30;;;1.30;;
53313;SDS011;39202;51.468;7.146;2022-08-27T23:50:19;2.65;;;1.30;;
53313;SDS011;39202;51.468;7.146;2022-08-27T23:55:21;1.17;;;1.10;;
